createdAt,value
2023-05-25T00:02:06.416Z,97177.97
2023-05-25T00:05:03.870Z,97172.06
2023-05-25T00:08:01.886Z,97176.34
2023-05-25T00:10:59.348Z,97180.78
2023-05-25T00:13:56.329Z,97180.56
2023-05-25T00:16:53.363Z,97174.09
2023-05-25T00:19:50.860Z,97179.31
2023-05-25T00:22:47.839Z,97181.38
2023-05-25T00:25:44.982Z,97185.59
2023-05-25T00:28:42.238Z,97181.34
2023-05-25T00:31:39.227Z,97189.63
2023-05-25T00:34:36.412Z,97181.88
2023-05-25T00:37:33.260Z,97176.09
2023-05-25T00:40:30.138Z,97186.75
2023-05-25T00:43:27.011Z,97182.47
2023-05-25T00:46:24.046Z,97187.28
2023-05-25T00:49:25.496Z,97183.84
2023-05-25T00:52:22.345Z,97183.00
2023-05-25T00:55:21.599Z,97181.69
2023-05-25T00:58:24.431Z,97173.97
2023-05-25T01:01:24.210Z,97173.13
2023-05-25T01:04:23.136Z,97179.84
2023-05-25T01:07:27.158Z,97181.69
2023-05-25T01:10:26.380Z,97172.34
2023-05-25T01:13:23.544Z,97180.09
2023-05-25T01:16:26.016Z,97181.19
2023-05-25T01:19:23.291Z,97184.63
2023-05-25T01:22:32.659Z,97177.44
2023-05-25T01:25:51.721Z,97175.56
2023-05-25T01:28:52.997Z,97175.06
2023-05-25T01:31:52.859Z,97174.22
2023-05-25T01:34:50.619Z,97175.03
2023-05-25T01:37:48.809Z,97177.97
2023-05-25T01:40:45.695Z,97170.00
2023-05-25T01:43:42.989Z,97175.84
2023-05-25T01:46:41.435Z,97176.91
2023-05-25T01:49:50.120Z,97175.03
2023-05-25T01:53:34.922Z,97170.78
2023-05-25T01:56:34.955Z,97179.06
2023-05-25T01:59:33.196Z,97179.81
2023-05-25T02:02:33.028Z,97185.94
2023-05-25T02:05:30.581Z,97178.75
2023-05-25T02:08:27.453Z,97177.97
2023-05-25T02:11:24.295Z,97176.59
2023-05-25T02:14:21.231Z,97177.66
2023-05-25T02:17:18.164Z,97175.78
2023-05-25T02:20:15.085Z,97179.28
2023-05-25T02:23:11.997Z,97174.13
2023-05-25T02:26:08.936Z,97170.97
2023-05-25T02:29:06.619Z,97171.25
2023-05-25T02:32:03.546Z,97171.78
2023-05-25T02:35:00.706Z,97161.16
2023-05-25T02:37:57.586Z,97160.34
2023-05-25T02:40:54.438Z,97163.31
2023-05-25T02:43:51.424Z,97166.47
2023-05-25T02:46:48.365Z,97170.25
2023-05-25T02:49:45.960Z,97179.31
2023-05-25T02:52:43.020Z,97185.97
2023-05-25T02:55:40.555Z,97178.50
2023-05-25T02:58:38.625Z,97177.44
2023-05-25T03:01:35.709Z,97178.25
2023-05-25T03:04:34.394Z,97185.72
2023-05-25T03:07:31.884Z,97191.84
2023-05-25T03:10:28.758Z,97188.09
2023-05-25T03:13:25.664Z,97193.94
2023-05-25T03:16:23.682Z,97189.16
2023-05-25T03:19:20.969Z,97186.50
2023-05-25T03:22:17.861Z,97188.63
2023-05-25T03:25:15.034Z,97192.06
2023-05-25T03:28:11.934Z,97195.78
2023-05-25T03:31:08.804Z,97204.81
2023-05-25T03:34:06.929Z,97202.97
2023-05-25T03:37:03.935Z,97197.38
2023-05-25T03:40:00.819Z,97200.47
2023-05-25T03:42:57.681Z,97196.75
2023-05-25T03:45:54.549Z,97206.41
2023-05-25T03:48:51.449Z,97205.06
2023-05-25T03:51:48.434Z,97202.88
2023-05-25T03:54:45.599Z,97204.41
2023-05-25T03:57:42.942Z,97210.28
2023-05-25T04:00:39.814Z,97210.84
2023-05-25T04:03:36.986Z,97208.63
2023-05-25T04:06:37.163Z,97201.38
2023-05-25T04:09:34.417Z,97212.34
2023-05-25T04:12:32.365Z,97216.38
2023-05-25T04:15:30.494Z,97210.69
2023-05-25T04:18:27.469Z,97220.06
2023-05-25T04:21:24.768Z,97220.28
2023-05-25T04:24:22.290Z,97227.81
2023-05-25T04:27:20.477Z,97226.41
2023-05-25T04:30:17.339Z,97232.25
2023-05-25T04:33:14.374Z,97229.16
2023-05-25T04:36:11.364Z,97232.97
2023-05-25T04:39:08.340Z,97219.72
2023-05-25T04:42:06.089Z,97227.16
2023-05-25T04:45:03.080Z,97225.75
2023-05-25T04:48:01.615Z,97236.84
2023-05-25T04:51:02.987Z,97234.84
2023-05-25T04:54:00.165Z,97236.28
2023-05-25T04:56:57.329Z,97224.66
2023-05-25T04:59:54.858Z,97229.41
2023-05-25T05:02:51.825Z,97228.25
2023-05-25T05:05:48.850Z,97225.03
2023-05-25T05:08:45.707Z,97232.09
2023-05-25T05:11:42.549Z,97232.06
2023-05-25T05:14:39.432Z,97224.06
2023-05-25T05:17:36.329Z,97229.06
2023-05-25T05:20:33.302Z,97231.53
2023-05-25T05:23:30.228Z,97236.09
2023-05-25T05:26:27.783Z,97221.28
2023-05-25T05:29:24.687Z,97222.03
2023-05-25T05:32:21.564Z,97227.75
2023-05-25T05:35:18.502Z,97224.09
2023-05-25T05:38:15.536Z,97229.72
2023-05-25T05:41:16.066Z,97233.97
2023-05-25T05:44:12.933Z,97236.19
2023-05-25T05:47:09.900Z,97243.44
2023-05-25T05:50:07.558Z,97233.28
2023-05-25T05:53:05.514Z,97233.50
2023-05-25T05:56:03.787Z,97232.84
2023-05-25T05:59:00.733Z,97240.00
2023-05-25T06:01:57.626Z,97245.16
2023-05-25T06:04:54.509Z,97238.94
2023-05-25T06:07:51.875Z,97237.47
2023-05-25T06:10:48.771Z,97244.31
2023-05-25T06:13:46.672Z,97247.69
2023-05-25T06:16:43.925Z,97253.22
2023-05-25T06:19:42.731Z,97256.78
2023-05-25T06:22:39.608Z,97252.78
2023-05-25T06:25:36.521Z,97263.59
2023-05-25T06:28:33.752Z,97266.56
2023-05-25T06:31:30.968Z,97268.44
2023-05-25T06:34:27.875Z,97261.34
2023-05-25T06:37:24.765Z,97262.56
2023-05-25T06:40:22.185Z,97261.09
2023-05-25T06:43:19.156Z,97261.31
2023-05-25T06:46:18.296Z,97260.38
2023-05-25T06:49:15.381Z,97262.81
2023-05-25T06:52:12.260Z,97257.75
2023-05-25T06:55:09.625Z,97263.56
2023-05-25T06:58:06.707Z,97266.00
2023-05-25T07:01:03.731Z,97281.03
2023-05-25T07:04:00.629Z,97276.38
2023-05-25T07:06:57.492Z,97276.03
2023-05-25T07:09:54.372Z,97281.63
2023-05-25T07:12:51.219Z,97286.84
2023-05-25T07:15:48.612Z,97279.72
2023-05-25T07:18:45.870Z,97280.03
2023-05-25T07:21:42.739Z,97275.31
2023-05-25T07:24:39.638Z,97290.00
2023-05-25T07:27:36.545Z,97287.72
2023-05-25T07:30:34.041Z,97283.25
2023-05-25T07:33:30.983Z,97282.22
2023-05-25T07:36:27.986Z,97287.31
2023-05-25T07:39:24.995Z,97289.09
2023-05-25T07:42:21.953Z,97290.91
2023-05-25T07:45:18.871Z,97287.81
2023-05-25T07:48:16.137Z,97276.75
2023-05-25T07:51:13.200Z,97282.63
2023-05-25T07:54:10.110Z,97287.09
2023-05-25T07:57:07.917Z,97281.53
2023-05-25T08:00:07.791Z,97290.25
2023-05-25T08:03:04.844Z,97294.22
2023-05-25T08:06:01.920Z,97290.44
2023-05-25T08:08:58.788Z,97283.75
2023-05-25T08:12:07.684Z,97283.31
2023-05-25T08:15:10.379Z,97291.03
2023-05-25T08:18:07.271Z,97286.63
2023-05-25T08:21:04.270Z,97282.84
2023-05-25T08:24:04.233Z,97290.44
2023-05-25T08:27:01.993Z,97286.03
2023-05-25T08:29:58.881Z,97292.19
2023-05-25T08:32:55.806Z,97290.38
2023-05-25T08:35:53.349Z,97281.81
2023-05-25T08:38:50.228Z,97283.91
2023-05-25T08:41:47.575Z,97285.78
2023-05-25T08:44:44.483Z,97290.03
2023-05-25T08:47:43.285Z,97292.50
2023-05-25T08:50:41.379Z,97283.25
2023-05-25T08:53:41.210Z,97289.59
2023-05-25T08:56:53.002Z,97291.28
2023-05-25T09:00:12.272Z,97277.25
2023-05-25T09:03:20.694Z,97284.16
2023-05-25T09:06:17.886Z,97288.66
2023-05-25T09:09:14.854Z,97288.13
2023-05-25T09:12:12.924Z,97291.25
2023-05-25T09:15:13.105Z,97290.41
2023-05-25T09:18:12.303Z,97293.66
2023-05-25T09:21:09.889Z,97296.59
2023-05-25T09:24:07.809Z,97297.63
2023-05-25T09:27:05.647Z,97294.00
2023-05-25T09:30:02.688Z,97295.94
2023-05-25T09:33:18.818Z,97294.78
2023-05-25T09:36:16.763Z,97307.38
2023-05-25T09:39:14.078Z,97313.50
2023-05-25T09:42:11.796Z,97305.69
2023-05-25T09:45:09.401Z,97305.78
2023-05-25T09:48:07.749Z,97296.88
2023-05-25T09:51:06.507Z,97292.34
2023-05-25T09:54:05.068Z,97296.84
2023-05-25T09:57:04.147Z,97292.91
2023-05-25T10:00:01.104Z,97291.81
2023-05-25T10:02:58.133Z,97290.94
2023-05-25T10:05:55.314Z,97303.69
2023-05-25T10:08:54.106Z,97293.78
2023-05-25T10:11:54.859Z,97294.63
2023-05-25T10:14:54.232Z,97295.69
2023-05-25T10:17:58.066Z,97288.75
2023-05-25T10:21:03.590Z,97288.84
2023-05-25T10:24:13.037Z,97287.25
2023-05-25T10:27:26.379Z,97283.97
2023-05-25T10:30:26.850Z,97286.34
2023-05-25T10:33:24.629Z,97280.38
2023-05-25T10:36:22.969Z,97282.22
2023-05-25T10:39:21.473Z,97281.91
2023-05-25T10:42:19.006Z,97283.06
2023-05-25T10:45:16.811Z,97278.56
2023-05-25T10:48:15.781Z,97274.22
2023-05-25T10:51:12.921Z,97279.34
2023-05-25T10:54:14.886Z,97264.94
2023-05-25T10:57:16.008Z,97273.47
2023-05-25T11:00:14.570Z,97264.38
2023-05-25T11:03:11.620Z,97280.00
2023-05-25T11:06:10.447Z,97275.25
2023-05-25T11:09:07.747Z,97279.22
2023-05-25T11:12:05.111Z,97273.28
2023-05-25T11:15:16.971Z,97274.50
2023-05-25T11:18:16.770Z,97272.03
2023-05-25T11:21:36.535Z,97265.50
2023-05-25T11:24:33.398Z,97252.63
2023-05-25T11:27:31.975Z,97262.31
2023-05-25T11:30:29.507Z,97261.75
2023-05-25T11:33:27.525Z,97261.66
2023-05-25T11:36:25.746Z,97255.81
2023-05-25T11:39:23.590Z,97263.25
2023-05-25T11:42:22.998Z,97253.59
2023-05-25T11:45:22.938Z,97258.69
2023-05-25T11:48:19.880Z,97253.41
2023-05-25T11:51:16.778Z,97239.09
2023-05-25T11:54:23.304Z,97243.78
2023-05-25T11:57:24.839Z,97226.41
2023-05-25T12:00:27.473Z,97234.41
2023-05-25T12:03:33.428Z,97224.09
2023-05-25T12:06:36.514Z,97237.28
2023-05-25T12:09:34.547Z,97229.53
2023-05-25T12:12:41.945Z,97231.09
2023-05-25T12:15:38.876Z,97228.81
2023-05-25T12:18:35.926Z,97216.88
2023-05-25T12:21:33.418Z,97223.38
2023-05-25T12:24:30.378Z,97215.38
2023-05-25T12:27:28.847Z,97221.00
2023-05-25T12:30:28.907Z,97218.22
2023-05-25T12:33:25.844Z,97206.41
2023-05-25T12:36:49.889Z,97200.78
2023-05-25T12:39:47.666Z,97197.84
2023-05-25T12:42:44.513Z,97204.16
2023-05-25T12:45:44.424Z,97203.38
2023-05-25T12:48:41.929Z,97199.78
2023-05-25T12:51:39.401Z,97199.19
2023-05-25T12:54:45.072Z,97194.88
2023-05-25T12:57:42.052Z,97194.19
2023-05-25T13:00:41.098Z,97190.47
2023-05-25T13:03:38.095Z,97193.78
2023-05-25T13:06:35.975Z,97195.09
2023-05-25T13:09:32.990Z,97193.69
2023-05-25T13:12:31.145Z,97192.31
2023-05-25T13:15:28.926Z,97192.19
2023-05-25T13:18:26.129Z,97181.94
2023-05-25T13:21:22.981Z,97188.06
2023-05-25T13:24:19.979Z,97189.34
2023-05-25T13:27:16.882Z,97182.28
2023-05-25T13:30:14.773Z,97174.16
2023-05-25T13:33:11.803Z,97175.28
2023-05-25T13:36:09.096Z,97170.47
2023-05-25T13:39:05.968Z,97172.34
2023-05-25T13:42:02.876Z,97172.06
2023-05-25T13:44:59.752Z,97168.41
2023-05-25T13:47:56.733Z,97168.41
2023-05-25T13:50:53.745Z,97172.66
2023-05-25T13:53:50.803Z,97166.16
2023-05-25T13:56:47.652Z,97162.50
2023-05-25T13:59:44.523Z,97167.78
2023-05-25T14:02:41.658Z,97166.03
2023-05-25T14:05:38.707Z,97162.56
2023-05-25T14:08:35.589Z,97175.81
2023-05-25T14:11:32.458Z,97168.06
2023-05-25T14:14:32.285Z,97169.63
2023-05-25T14:17:29.612Z,97167.28
2023-05-25T14:20:26.724Z,97162.41
2023-05-25T14:23:24.026Z,97168.88
2023-05-25T14:26:22.098Z,97165.34
2023-05-25T14:29:18.965Z,97157.56
2023-05-25T14:32:17.036Z,97162.41
2023-05-25T14:35:13.944Z,97159.59
2023-05-25T14:38:11.261Z,97162.66
2023-05-25T14:41:08.170Z,97170.66
2023-05-25T14:44:05.124Z,97167.00
2023-05-25T14:47:02.090Z,97165.47
2023-05-25T14:49:59.007Z,97167.88
2023-05-25T14:52:55.957Z,97153.78
2023-05-25T14:55:52.912Z,97155.75
2023-05-25T14:58:49.763Z,97155.19
2023-05-25T15:01:46.738Z,97149.13
2023-05-25T15:04:43.684Z,97154.25
2023-05-25T15:07:41.529Z,97158.75
2023-05-25T15:10:38.373Z,97151.16
2023-05-25T15:13:35.294Z,97159.56
2023-05-25T15:16:32.332Z,97155.38
2023-05-25T15:19:29.216Z,97168.56
2023-05-25T15:22:26.157Z,97161.53
2023-05-25T15:25:34.874Z,97161.66
2023-05-25T15:28:32.598Z,97148.88
2023-05-25T15:31:29.530Z,97162.06
2023-05-25T15:34:26.551Z,97172.69
2023-05-25T15:37:23.417Z,97163.47
2023-05-25T15:40:20.453Z,97170.19
2023-05-25T15:43:17.321Z,97167.06
2023-05-25T15:46:14.246Z,97174.47
2023-05-25T15:49:11.466Z,97157.75
2023-05-25T15:52:08.570Z,97162.91
2023-05-25T15:55:06.248Z,97164.28
2023-05-25T15:58:03.161Z,97167.47
2023-05-25T16:01:02.888Z,97158.41
2023-05-25T16:04:00.976Z,97156.00
2023-05-25T16:06:59.464Z,97164.97
2023-05-25T16:09:57.635Z,97163.38
2023-05-25T16:12:54.561Z,97162.44
2023-05-25T16:15:51.444Z,97163.88
2023-05-25T16:18:48.452Z,97171.84
2023-05-25T16:21:45.837Z,97166.69
2023-05-25T16:24:42.812Z,97175.19
2023-05-25T16:27:39.792Z,97170.41
2023-05-25T16:30:36.731Z,97173.84
2023-05-25T16:33:34.277Z,97172.44
2023-05-25T16:36:31.521Z,97163.13
2023-05-25T16:39:28.434Z,97174.69
2023-05-25T16:42:26.450Z,97171.78
2023-05-25T16:45:23.317Z,97166.03
2023-05-25T16:48:23.069Z,97176.06
2023-05-25T16:51:20.185Z,97169.59
2023-05-25T16:54:17.089Z,97169.84
2023-05-25T16:57:14.003Z,97179.91
2023-05-25T17:00:11.744Z,97177.88
2023-05-25T17:03:09.333Z,97178.25
2023-05-25T17:06:06.723Z,97169.03
2023-05-25T17:09:03.775Z,97172.38
2023-05-25T17:12:01.755Z,97168.13
2023-05-25T17:14:58.635Z,97181.63
2023-05-25T17:17:55.628Z,97173.03
2023-05-25T17:20:52.690Z,97174.56
2023-05-25T17:23:49.706Z,97172.53
2023-05-25T17:26:49.300Z,97172.28
2023-05-25T17:29:46.168Z,97174.28
2023-05-25T17:32:43.080Z,97174.91
2023-05-25T17:35:39.984Z,97181.66
2023-05-25T17:38:38.076Z,97178.72
2023-05-25T17:41:34.954Z,97181.47
2023-05-25T17:44:31.925Z,97176.06
2023-05-25T17:47:28.882Z,97177.38
2023-05-25T17:50:25.772Z,97186.91
2023-05-25T17:53:22.638Z,97177.28
2023-05-25T17:56:19.503Z,97185.13
2023-05-25T17:59:16.573Z,97181.19
2023-05-25T18:02:13.621Z,97195.19
2023-05-25T18:05:10.630Z,97195.97
2023-05-25T18:08:07.555Z,97193.16
2023-05-25T18:11:05.277Z,97198.50
2023-05-25T18:14:05.048Z,97200.38
2023-05-25T18:17:02.023Z,97196.97
2023-05-25T18:19:58.962Z,97203.44
2023-05-25T18:22:56.354Z,97210.44
2023-05-25T18:25:53.367Z,97207.13
2023-05-25T18:28:50.323Z,97208.63
2023-05-25T18:31:48.796Z,97207.56
2023-05-25T18:34:46.059Z,97215.03
2023-05-25T18:37:42.958Z,97212.78
2023-05-25T18:40:39.851Z,97220.44
2023-05-25T18:43:36.730Z,97223.94
2023-05-25T18:46:33.728Z,97218.84
2023-05-25T18:49:33.688Z,97224.47
2023-05-25T18:52:30.760Z,97223.34
2023-05-25T18:55:28.279Z,97225.03
2023-05-25T18:58:25.228Z,97219.53
2023-05-25T19:01:22.913Z,97223.78
2023-05-25T19:04:20.170Z,97224.31
2023-05-25T19:07:17.210Z,97229.72
2023-05-25T19:10:14.131Z,97226.91
2023-05-25T19:13:11.226Z,97228.69
2023-05-25T19:16:08.680Z,97222.59
2023-05-25T19:19:05.760Z,97230.56
2023-05-25T19:22:02.656Z,97232.81
2023-05-25T19:25:01.059Z,97246.44
2023-05-25T19:27:59.629Z,97245.53
2023-05-25T19:30:56.548Z,97243.22
2023-05-25T19:33:53.502Z,97247.59
2023-05-25T19:36:59.696Z,97247.59
2023-05-25T19:39:58.243Z,97242.69
2023-05-25T19:42:55.284Z,97255.72
2023-05-25T19:45:52.293Z,97256.19
2023-05-25T19:48:49.320Z,97269.81
2023-05-25T19:51:46.328Z,97258.56
2023-05-25T19:54:43.431Z,97266.66
2023-05-25T19:57:40.277Z,97272.69
2023-05-25T20:00:37.177Z,97281.09
2023-05-25T20:03:34.211Z,97275.06
2023-05-25T20:06:31.520Z,97278.41
2023-05-25T20:09:31.229Z,97281.75
2023-05-25T20:12:28.074Z,97294.13
2023-05-25T20:15:24.950Z,97284.91
2023-05-25T20:18:23.951Z,97288.72
2023-05-25T20:21:20.940Z,97295.22
2023-05-25T20:24:17.924Z,97285.38
2023-05-25T20:27:14.788Z,97298.72
2023-05-25T20:30:13.705Z,97295.72
2023-05-25T20:33:11.237Z,97294.84
2023-05-25T20:36:08.185Z,97296.97
2023-05-25T20:39:05.058Z,97303.59
2023-05-25T20:42:02.666Z,97306.59
2023-05-25T20:44:59.544Z,97301.25
2023-05-25T20:48:06.695Z,97305.44
2023-05-25T20:51:03.657Z,97298.16
2023-05-25T20:54:00.798Z,97306.75
2023-05-25T20:56:57.717Z,97296.69
2023-05-25T20:59:57.190Z,97309.91
2023-05-25T21:02:54.150Z,97312.09
2023-05-25T21:05:51.369Z,97313.84
2023-05-25T21:08:48.239Z,97314.25
2023-05-25T21:11:45.111Z,97315.88
2023-05-25T21:14:42.033Z,97323.31
2023-05-25T21:17:38.945Z,97330.31
2023-05-25T21:20:36.604Z,97327.06
2023-05-25T21:23:33.508Z,97332.41
2023-05-25T21:26:31.133Z,97345.13
2023-05-25T21:29:28.070Z,97337.34
2023-05-25T21:32:25.124Z,97330.72
2023-05-25T21:35:22.139Z,97326.69
2023-05-25T21:38:19.006Z,97328.81
2023-05-25T21:41:16.097Z,97330.88
2023-05-25T21:44:12.967Z,97329.88
2023-05-25T21:47:09.914Z,97332.34
2023-05-25T21:50:07.179Z,97332.63
2023-05-25T21:53:04.082Z,97339.97
2023-05-25T21:56:00.948Z,97341.88
2023-05-25T21:58:57.816Z,97335.88
2023-05-25T22:01:54.714Z,97343.00
2023-05-25T22:04:51.578Z,97345.97
2023-05-25T22:07:48.431Z,97352.28
2023-05-25T22:10:45.389Z,97351.16
2023-05-25T22:13:42.433Z,97352.97
2023-05-25T22:16:39.346Z,97356.44
2023-05-25T22:19:36.249Z,97355.84
2023-05-25T22:22:33.103Z,97360.06
2023-05-25T22:25:30.137Z,97357.16
2023-05-25T22:28:27.198Z,97356.50
2023-05-25T22:31:25.720Z,97352.81
2023-05-25T22:34:22.903Z,97357.25
2023-05-25T22:37:19.766Z,97358.59
2023-05-25T22:40:16.817Z,97363.72
2023-05-25T22:43:14.614Z,97366.66
2023-05-25T22:46:11.598Z,97369.38
2023-05-25T22:49:08.490Z,97375.50
2023-05-25T22:52:09.383Z,97377.03
2023-05-25T22:55:07.240Z,97374.22
2023-05-25T22:58:04.114Z,97394.59
2023-05-25T23:01:00.997Z,97376.00
2023-05-25T23:03:59.642Z,97381.31
2023-05-25T23:06:56.725Z,97374.72
2023-05-25T23:09:53.597Z,97379.03
2023-05-25T23:12:51.414Z,97375.00
2023-05-25T23:15:48.490Z,97385.22
2023-05-25T23:18:45.572Z,97379.91
2023-05-25T23:21:42.827Z,97375.50
2023-05-25T23:24:40.423Z,97380.22
2023-05-25T23:27:37.283Z,97383.06
2023-05-25T23:30:34.158Z,97377.91
2023-05-25T23:33:31.209Z,97381.69
2023-05-25T23:36:28.338Z,97379.41
2023-05-25T23:39:25.575Z,97379.97
2023-05-25T23:42:22.483Z,97373.16
2023-05-25T23:45:19.662Z,97376.38
2023-05-25T23:48:16.567Z,97379.81
2023-05-25T23:51:13.537Z,97385.41
2023-05-25T23:54:10.698Z,97376.66
2023-05-25T23:57:07.568Z,97381.03
